Fairbanks, AK (99708)

4:38 PM AKDT on September 02, 2015 (GMT -0800)
APRSWXNET | | Change Station
CLOSE
Current Station
Personal Weather Station
Location: Fairbanks, AK
Elevation: 597 ft
Nearby Weather Stations

Elev 597 ft 64.86 °N, 147.85 °W | Updated 24 minutes ago

Partly Cloudy
Partly Cloudy
57 °F
Feels Like 57 °F
N
2
Wind Variable Wind from NE
Gusts 0.0 mph

Today
High -- | Low -- °F
--% Chance of Precip.
Yesterday
High -- | Low -- °F
Precip. -- in
6:34 AM 9:06 PM
Waning Gibbous, 76% visible
Pressure 30.06 in
Visibility 10.0 miles
Clouds Few 20000 ft
Dew Point 36 °F
Humidity 46%
Rainfall in
Snow Depth Not available.
UV 3 out of 12
Pollen Not available.
Air Quality Not available.
Flu Activity Not available.
METAR PAFA 022353Z 11003KT 10SM FEW200 14/00 A3003 RMK AO2 SLP177 T01440000 10150 20056 56014
Pressure 30.06 in
Visibility 10.0 miles
Clouds Few 20000 ft
Dew Point 36 °F
Humidity 46%
Rainfall in
Snow Depth Not available.
UV 3 out of 12
Pollen Not available.
Air Quality Not available.
Flu Activity Not available.
METAR PAFA 022353Z 11003KT 10SM FEW200 14/00 A3003 RMK AO2 SLP177 T01440000 10150 20056 56014

10-Day Weather Forecast

×

Almanac

Astronomy

Sep. 02, 2015 Rise Set
Actual Time
Civil Twilight
Nautical Twilight
Astronomical Twilight
Moon
Length of Visible Light
Length of Day
Tomorrow will be .
, % of the Moon is Illuminated

Today's Extremes

State Highs State Lows

Community

WunderPhotos

Upload Photos

1,851,853 photos uploaded!

WunderBlogs® & News

Nearby

Air Quality

  Air Quality AQ Index Pollutant
Not available.

Snow Depth

Station Depth Elevation

Earthquake Activity

City Distance Mag. Time & Date
Minimum magnitude displayed is 2.5.

Coastal Water Temperatures

Place Temperature

Stations

Nearby Weather Stations

Station Location Temp. Windchill Dew Point Humidity Wind Precip. Elev Updated Type